createdAt,value
2022-10-05T00:00:14.333Z,100475.84
2022-10-05T00:02:42.954Z,100482.84
2022-10-05T00:05:21.267Z,100470.63
2022-10-05T00:07:52.070Z,100464.44
2022-10-05T00:10:21.017Z,100472.34
2022-10-05T00:12:50.144Z,100470.56
2022-10-05T00:15:21.601Z,100460.91
2022-10-05T00:17:50.163Z,100460.91
2022-10-05T00:20:22.597Z,100456.50
2022-10-05T00:22:58.342Z,100450.38
2022-10-05T00:25:26.738Z,100444.19
2022-10-05T00:27:57.600Z,100443.38
2022-10-05T00:30:28.035Z,100448.63
2022-10-05T00:32:59.622Z,100446.00
2022-10-05T00:35:30.706Z,100447.75
2022-10-05T00:38:00.411Z,100443.38
2022-10-05T00:40:49.951Z,100437.25
2022-10-05T00:43:36.932Z,100442.56
2022-10-05T00:46:12.408Z,100451.31
2022-10-05T00:48:49.362Z,100446.06
2022-10-05T00:51:25.447Z,100447.81
2022-10-05T00:54:18.321Z,100447.81
2022-10-05T00:57:10.471Z,100448.72
2022-10-05T00:59:51.558Z,100453.06
2022-10-05T01:02:34.422Z,100444.34
2022-10-05T01:05:12.825Z,100447.81
2022-10-05T01:07:48.858Z,100443.44
2022-10-05T01:10:27.222Z,100446.06
2022-10-05T01:13:04.948Z,100440.75
2022-10-05T01:15:40.568Z,100447.75
2022-10-05T01:18:18.075Z,100439.88
2022-10-05T01:20:58.043Z,100432.81
2022-10-05T01:24:05.058Z,100441.56
2022-10-05T01:26:53.350Z,100445.03
2022-10-05T01:29:26.278Z,100431.88
2022-10-05T01:32:00.904Z,100425.69
2022-10-05T01:34:38.121Z,100420.44
2022-10-05T01:37:16.632Z,100421.25
2022-10-05T01:39:55.970Z,100416.88
2022-10-05T01:42:34.066Z,100418.63
2022-10-05T01:45:12.165Z,100418.63
2022-10-05T01:47:46.770Z,100410.69
2022-10-05T01:50:25.391Z,100408.94
2022-10-05T01:53:04.451Z,100408.06
2022-10-05T01:55:41.289Z,100409.75
2022-10-05T01:58:20.258Z,100408.00
2022-10-05T02:01:01.778Z,100408.06
2022-10-05T02:03:38.023Z,100403.63
2022-10-05T02:09:21.620Z,100398.38
2022-10-05T02:13:04.408Z,100393.13
2022-10-05T02:15:41.705Z,100395.69
2022-10-05T02:18:15.402Z,100390.44
2022-10-05T02:20:46.502Z,100392.19
2022-10-05T02:23:43.952Z,100392.19
2022-10-05T02:26:13.310Z,100390.44
2022-10-05T02:28:47.532Z,100384.31
2022-10-05T02:31:19.976Z,100385.19
2022-10-05T02:33:51.281Z,100387.75
2022-10-05T02:36:27.835Z,100395.66
2022-10-05T02:39:06.977Z,100392.13
2022-10-05T02:41:46.685Z,100392.13
2022-10-05T02:44:24.442Z,100380.75
2022-10-05T02:47:00.650Z,100381.63
2022-10-05T02:49:41.714Z,100384.25
2022-10-05T02:52:15.318Z,100371.94
2022-10-05T02:54:50.937Z,100371.06
2022-10-05T02:57:27.192Z,100380.69
2022-10-05T03:00:04.507Z,100372.81
2022-10-05T03:02:41.986Z,100368.47
2022-10-05T03:05:23.041Z,100364.13
2022-10-05T03:07:58.976Z,100371.16
2022-10-05T03:10:35.064Z,100376.44
2022-10-05T03:13:10.089Z,100377.34
2022-10-05T03:16:04.100Z,100368.59
2022-10-05T03:18:45.796Z,100365.97
2022-10-05T03:21:30.065Z,100357.22
2022-10-05T03:24:11.037Z,100358.16
2022-10-05T03:26:50.910Z,100363.41
2022-10-05T03:29:30.401Z,100366.91
2022-10-05T03:32:03.953Z,100352.03
2022-10-05T03:34:42.798Z,100347.63
2022-10-05T03:37:21.869Z,100356.41
2022-10-05T03:39:56.695Z,100341.53
2022-10-05T03:42:37.592Z,100333.59
2022-10-05T03:45:19.895Z,100338.84
2022-10-05T03:48:01.142Z,100328.31
2022-10-05T03:50:43.334Z,100330.09
2022-10-05T03:53:19.781Z,100327.41
2022-10-05T03:55:56.404Z,100323.91
2022-10-05T03:58:29.568Z,100325.63
2022-10-05T04:01:05.769Z,100325.63
2022-10-05T04:03:37.351Z,100324.72
2022-10-05T04:06:11.181Z,100322.97
2022-10-05T04:08:48.816Z,100326.47
2022-10-05T04:11:33.645Z,100322.91
2022-10-05T04:14:07.111Z,100324.66
2022-10-05T04:16:40.426Z,100323.78
2022-10-05T04:19:15.438Z,100323.75
2022-10-05T04:21:52.926Z,100312.41
2022-10-05T04:24:29.878Z,100312.41
2022-10-05T04:27:02.498Z,100309.78
2022-10-05T04:29:39.118Z,100315.88
2022-10-05T04:32:22.746Z,100312.41
2022-10-05T04:35:03.112Z,100308.91
2022-10-05T04:37:42.159Z,100314.16
2022-10-05T04:40:33.453Z,100308.91
2022-10-05T04:43:09.529Z,100310.69
2022-10-05T04:45:51.629Z,100310.69
2022-10-05T04:48:39.703Z,100317.72
2022-10-05T04:51:23.009Z,100315.97
2022-10-05T04:53:57.762Z,100319.47
2022-10-05T04:56:35.346Z,100321.25
2022-10-05T04:59:24.750Z,100322.09
2022-10-05T05:02:06.678Z,100331.78
2022-10-05T05:04:57.271Z,100322.09
2022-10-05T05:07:41.916Z,100323.00
2022-10-05T05:10:42.548Z,100325.63
2022-10-05T05:13:28.725Z,100324.72
2022-10-05T05:16:05.982Z,100323.84
2022-10-05T05:19:07.660Z,100316.84
2022-10-05T05:21:45.790Z,100322.09
2022-10-05T05:24:22.101Z,100322.09
2022-10-05T05:27:03.572Z,100324.72
2022-10-05T05:29:45.511Z,100320.38
2022-10-05T05:32:22.670Z,100321.25
2022-10-05T05:35:05.633Z,100316.91
2022-10-05T05:37:40.501Z,100316.03
2022-10-05T05:40:16.838Z,100322.19
2022-10-05T05:42:56.731Z,100327.50
2022-10-05T05:45:38.411Z,100335.38
2022-10-05T05:48:17.341Z,100331.88
2022-10-05T05:50:56.303Z,100325.75
2022-10-05T05:53:30.967Z,100324.94
2022-10-05T05:56:06.274Z,100336.31
2022-10-05T05:58:36.500Z,100326.69
2022-10-05T06:01:25.025Z,100321.44
2022-10-05T06:04:03.135Z,100317.97
2022-10-05T06:06:33.405Z,100313.59
2022-10-05T06:09:06.673Z,100319.75
2022-10-05T06:11:49.124Z,100323.25
2022-10-05T06:14:24.012Z,100325.06
2022-10-05T06:16:56.197Z,100321.59
2022-10-05T06:19:26.858Z,100326.84
2022-10-05T06:22:01.607Z,100325.13
2022-10-05T06:24:36.134Z,100329.53
2022-10-05T06:27:36.604Z,100332.22
2022-10-05T06:30:11.121Z,100344.50
2022-10-05T06:33:07.033Z,100343.69
2022-10-05T06:35:48.769Z,100333.19
2022-10-05T06:38:31.018Z,100335.81
2022-10-05T06:41:09.142Z,100320.97
2022-10-05T06:43:49.314Z,100322.78
2022-10-05T06:46:42.555Z,100325.44
2022-10-05T06:49:32.139Z,100328.13
2022-10-05T06:52:27.178Z,100324.69
2022-10-05T06:55:09.595Z,100325.66
2022-10-05T06:57:53.159Z,100316.88
2022-10-05T07:00:24.840Z,100324.00
2022-10-05T07:03:01.541Z,100325.75
2022-10-05T07:05:45.529Z,100327.59
2022-10-05T07:08:20.051Z,100325.91
2022-10-05T07:11:04.897Z,100325.97
2022-10-05T07:13:51.638Z,100324.28
2022-10-05T07:16:31.504Z,100329.56
2022-10-05T07:19:12.221Z,100332.22
2022-10-05T07:21:49.750Z,100331.38
2022-10-05T07:24:30.259Z,100331.47
2022-10-05T07:27:11.532Z,100328.91
2022-10-05T07:29:50.041Z,100331.56
2022-10-05T07:32:34.655Z,100333.34
2022-10-05T07:35:33.341Z,100336.03
2022-10-05T07:38:09.432Z,100336.97
2022-10-05T07:40:42.872Z,100329.97
2022-10-05T07:43:40.129Z,100338.81
2022-10-05T07:46:23.862Z,100329.22
2022-10-05T07:49:03.221Z,100336.28
2022-10-05T07:51:38.657Z,100338.94
2022-10-05T07:54:17.917Z,100328.47
2022-10-05T07:56:50.704Z,100337.28
2022-10-05T07:59:29.589Z,100332.94
2022-10-05T08:02:07.995Z,100339.16
2022-10-05T08:04:46.197Z,100339.22
2022-10-05T08:07:18.137Z,100333.16
2022-10-05T08:09:54.424Z,100339.31
2022-10-05T08:12:30.780Z,100329.75
2022-10-05T08:15:04.373Z,100332.44
2022-10-05T08:17:50.389Z,100332.50
2022-10-05T08:20:30.724Z,100329.06
2022-10-05T08:23:03.258Z,100357.19
2022-10-05T08:25:45.295Z,100338.84
2022-10-05T08:28:18.582Z,100334.53
2022-10-05T08:30:55.944Z,100325.78
2022-10-05T08:33:27.664Z,100323.25
2022-10-05T08:36:07.133Z,100320.69
2022-10-05T08:38:35.983Z,100326.00
2022-10-05T08:41:45.793Z,100325.19
2022-10-05T08:45:02.635Z,100320.88
2022-10-05T08:47:57.421Z,100327.09
2022-10-05T08:50:54.951Z,100324.50
2022-10-05T08:53:37.093Z,100330.75
2022-10-05T08:56:30.309Z,100326.41
2022-10-05T08:59:14.309Z,100322.06
2022-10-05T09:02:06.665Z,100323.00
2022-10-05T09:04:50.224Z,100330.09
2022-10-05T09:07:36.295Z,100320.50
2022-10-05T09:10:44.040Z,100320.63
2022-10-05T09:13:48.874Z,100322.44
2022-10-05T09:16:45.518Z,100314.63
2022-10-05T09:19:45.141Z,100312.94
2022-10-05T09:22:16.379Z,100310.34
2022-10-05T09:24:55.351Z,100308.66
2022-10-05T09:27:36.541Z,100306.94
2022-10-05T09:30:21.415Z,100316.66
2022-10-05T09:33:08.249Z,100313.19
2022-10-05T09:36:18.860Z,100301.81
2022-10-05T09:39:17.639Z,100295.72
2022-10-05T09:42:08.392Z,100304.56
2022-10-05T09:45:12.444Z,100294.03
2022-10-05T09:48:17.713Z,100304.63
2022-10-05T09:51:17.625Z,100302.00
2022-10-05T09:54:14.641Z,100295.88
2022-10-05T09:57:11.892Z,100302.97
2022-10-05T10:00:01.973Z,100294.16
2022-10-05T10:03:06.673Z,100298.63
2022-10-05T10:06:01.770Z,100293.38
2022-10-05T10:08:44.522Z,100290.78
2022-10-05T10:11:23.466Z,100281.16
2022-10-05T10:14:20.876Z,100288.22
2022-10-05T10:17:12.882Z,100282.97
2022-10-05T10:20:13.033Z,100277.72
2022-10-05T10:23:13.817Z,100273.34
2022-10-05T10:26:12.233Z,100281.31
2022-10-05T10:29:18.137Z,100282.22
2022-10-05T10:31:58.047Z,100280.50
2022-10-05T10:34:56.758Z,100280.50
2022-10-05T10:38:12.593Z,100291.09
2022-10-05T10:40:56.811Z,100288.50
2022-10-05T10:43:46.498Z,100287.66
2022-10-05T10:46:29.838Z,100290.31
2022-10-05T10:49:12.795Z,100288.56
2022-10-05T10:52:05.383Z,100290.41
2022-10-05T10:54:57.022Z,100273.69
2022-10-05T10:57:38.636Z,100271.97
2022-10-05T11:00:36.619Z,100272.00
2022-10-05T11:03:43.138Z,100260.59
2022-10-05T11:06:45.893Z,100250.94
2022-10-05T11:09:57.413Z,100251.03
2022-10-05T11:13:01.180Z,100243.19
2022-10-05T11:16:02.731Z,100239.69
2022-10-05T11:18:46.927Z,100230.00
2022-10-05T11:21:25.605Z,100230.91
2022-10-05T11:24:34.653Z,100230.03
2022-10-05T11:27:43.433Z,100219.47
2022-10-05T11:30:50.480Z,100210.63
2022-10-05T11:33:50.287Z,100207.09
2022-10-05T11:36:53.370Z,100199.09
2022-10-05T11:39:44.266Z,100195.56
2022-10-05T11:42:57.082Z,100197.28
2022-10-05T11:45:27.876Z,100172.53
2022-10-05T11:48:17.260Z,100168.06
2022-10-05T11:51:01.896Z,100172.44
2022-10-05T11:53:37.412Z,100157.34
2022-10-05T11:56:15.929Z,100165.28
2022-10-05T11:58:51.783Z,100158.19
2022-10-05T12:01:28.450Z,100147.53
2022-10-05T12:04:07.526Z,100143.09
2022-10-05T12:06:52.998Z,100139.47
2022-10-05T12:10:01.307Z,100141.19
2022-10-05T12:12:36.834Z,100134.00
2022-10-05T12:15:18.501Z,100128.66
2022-10-05T12:17:54.503Z,100117.06
2022-10-05T12:20:29.259Z,100116.97
2022-10-05T12:23:04.158Z,100113.38
2022-10-05T12:25:37.431Z,100094.69
2022-10-05T12:28:10.581Z,100099.84
2022-10-05T12:31:14.123Z,100092.56
2022-10-05T12:33:50.264Z,100087.09
2022-10-05T12:36:28.564Z,100078.13
2022-10-05T12:39:07.165Z,100072.69
2022-10-05T12:41:45.141Z,100079.59
2022-10-05T12:44:21.687Z,100065.31
2022-10-05T12:47:02.442Z,100066.09
2022-10-05T12:50:12.446Z,100058.03
2022-10-05T12:52:55.961Z,100046.34
2022-10-05T12:55:34.901Z,100052.34
2022-10-05T12:58:16.685Z,100042.28
2022-10-05T13:00:53.889Z,100035.88
2022-10-05T13:03:26.637Z,100039.22
2022-10-05T13:06:08.378Z,100029.28
2022-10-05T13:08:46.688Z,100031.66
2022-10-05T13:11:22.520Z,100021.84
2022-10-05T13:13:57.012Z,100010.91
2022-10-05T13:16:32.405Z,100008.91
2022-10-05T13:19:14.524Z,100007.84
2022-10-05T13:22:03.200Z,100005.81
2022-10-05T13:24:39.374Z,99987.88
2022-10-05T13:27:16.703Z,99995.63
2022-10-05T13:29:54.480Z,99989.25
2022-10-05T13:32:26.296Z,99991.28
2022-10-05T13:35:09.194Z,99984.06
2022-10-05T13:37:49.883Z,99984.66
2022-10-05T13:40:28.461Z,99982.50
2022-10-05T13:43:04.787Z,99984.84
2022-10-05T13:45:42.025Z,99979.50
2022-10-05T13:48:23.540Z,99981.19
2022-10-05T13:51:00.893Z,99981.19
2022-10-05T13:53:41.156Z,99977.41
2022-10-05T13:56:21.447Z,99976.16
2022-10-05T13:58:55.547Z,99982.13
2022-10-05T14:01:35.729Z,99967.59
2022-10-05T14:04:15.913Z,99967.44
2022-10-05T14:06:44.878Z,99974.25
2022-10-05T14:09:27.362Z,99964.06
2022-10-05T14:12:13.915Z,99972.84
2022-10-05T14:14:50.119Z,99974.75
2022-10-05T14:17:37.002Z,99971.84
2022-10-05T14:20:19.629Z,99963.69
2022-10-05T14:22:52.634Z,99967.19
2022-10-05T14:25:21.258Z,99963.53
2022-10-05T14:27:51.916Z,99970.53
2022-10-05T14:30:25.619Z,99972.28
2022-10-05T14:32:56.835Z,99966.00
2022-10-05T14:35:29.231Z,99972.91
2022-10-05T14:38:00.367Z,99969.81
2022-10-05T14:40:33.795Z,99961.56
2022-10-05T14:43:18.320Z,99979.94
2022-10-05T14:45:58.194Z,99984.22
2022-10-05T14:48:28.866Z,99977.03
2022-10-05T14:50:59.304Z,99983.94
2022-10-05T14:53:39.358Z,99979.38
2022-10-05T14:56:21.908Z,99987.25
2022-10-05T14:59:10.967Z,99970.13
2022-10-05T15:01:45.840Z,99967.31
2022-10-05T15:04:38.433Z,99978.09
2022-10-05T15:07:22.574Z,99980.97
2022-10-05T15:10:15.145Z,99977.41
2022-10-05T15:12:46.662Z,99986.28
2022-10-05T15:15:27.174Z,99990.66
2022-10-05T15:18:02.079Z,99992.56
2022-10-05T15:20:38.757Z,99992.75
2022-10-05T15:23:25.972Z,99993.97
2022-10-05T15:26:03.980Z,100000.84
2022-10-05T15:28:38.532Z,100000.50
2022-10-05T15:31:20.000Z,100002.72
2022-10-05T15:33:59.509Z,100001.38
2022-10-05T15:36:38.010Z,100006.31
2022-10-05T15:39:18.687Z,100008.56
2022-10-05T15:42:00.347Z,100014.38
2022-10-05T15:44:52.081Z,100014.69
2022-10-05T15:47:26.966Z,100020.41
2022-10-05T15:50:06.356Z,100038.50
2022-10-05T15:52:40.225Z,100035.28
2022-10-05T15:55:22.102Z,100032.00
2022-10-05T15:57:59.690Z,100049.28
2022-10-05T16:00:30.154Z,100046.78
2022-10-05T16:03:11.146Z,100052.34
2022-10-05T16:06:03.807Z,100060.47
2022-10-05T16:09:01.544Z,100065.13
2022-10-05T16:11:48.997Z,100068.81
2022-10-05T16:14:30.253Z,100076.97
2022-10-05T16:17:13.583Z,100070.03
2022-10-05T16:19:50.914Z,100087.97
2022-10-05T16:22:26.372Z,100090.69
2022-10-05T16:25:07.354Z,100098.00
2022-10-05T16:27:49.099Z,100112.34
2022-10-05T16:30:20.825Z,100110.75
2022-10-05T16:32:59.542Z,100115.34
2022-10-05T16:35:44.288Z,100124.25
2022-10-05T16:38:21.457Z,100130.59
2022-10-05T16:41:02.119Z,100135.94
2022-10-05T16:43:42.364Z,100132.44
2022-10-05T16:46:22.093Z,100141.38
2022-10-05T16:48:58.641Z,100141.44
2022-10-05T16:51:32.226Z,100153.06
2022-10-05T16:54:12.990Z,100148.66
2022-10-05T16:56:45.091Z,100157.56
2022-10-05T16:59:36.978Z,100172.75
2022-10-05T17:02:15.175Z,100176.34
2022-10-05T17:04:54.311Z,100181.78
2022-10-05T17:07:39.302Z,100188.94
2022-10-05T17:10:37.142Z,100186.28
2022-10-05T17:13:16.316Z,100212.94
2022-10-05T17:16:04.082Z,100207.75
2022-10-05T17:19:20.222Z,100215.81
2022-10-05T17:22:00.426Z,100216.75
2022-10-05T17:24:46.987Z,100233.59
2022-10-05T17:27:22.219Z,100239.84
2022-10-05T17:29:52.999Z,100244.38
2022-10-05T17:32:57.410Z,100259.44
2022-10-05T17:35:50.675Z,100255.91
2022-10-05T17:38:22.517Z,100261.25
2022-10-05T17:41:19.586Z,100259.53
2022-10-05T17:44:20.865Z,100268.47
2022-10-05T17:46:51.333Z,100270.25
2022-10-05T17:50:08.979Z,100279.16
2022-10-05T17:52:58.794Z,100288.91
2022-10-05T17:55:47.247Z,100287.19
2022-10-05T17:59:01.143Z,100290.75
2022-10-05T18:01:36.766Z,100296.06
2022-10-05T18:04:34.382Z,100304.91
2022-10-05T18:07:06.275Z,100312.91
2022-10-05T18:09:37.481Z,100290.78
2022-10-05T18:12:26.464Z,100297.88
2022-10-05T18:15:01.268Z,100302.31
2022-10-05T18:17:46.895Z,100307.59
2022-10-05T18:20:28.588Z,100306.72
2022-10-05T18:23:30.141Z,100301.44
2022-10-05T18:26:06.468Z,100309.41
2022-10-05T18:28:51.931Z,100303.22
2022-10-05T18:31:34.055Z,100307.66
2022-10-05T18:34:30.982Z,100307.63
2022-10-05T18:37:13.220Z,100306.75
2022-10-05T18:39:57.525Z,100306.75
2022-10-05T18:42:33.721Z,100310.31
2022-10-05T18:45:14.966Z,100318.28
2022-10-05T18:47:50.709Z,100307.66
2022-10-05T18:50:27.862Z,100318.25
2022-10-05T18:53:11.568Z,100313.81
2022-10-05T18:55:46.152Z,100314.69
2022-10-05T18:58:18.131Z,100318.25
2022-10-05T19:01:01.210Z,100317.38
2022-10-05T19:03:36.386Z,100317.38
2022-10-05T19:06:13.429Z,100312.94
2022-10-05T19:08:54.578Z,100313.84
2022-10-05T19:11:29.872Z,100317.38
2022-10-05T19:14:07.083Z,100310.31
2022-10-05T19:16:49.199Z,100313.88
2022-10-05T19:19:36.874Z,100311.22
2022-10-05T19:22:15.126Z,100319.19
2022-10-05T19:24:56.938Z,100313.00
2022-10-05T19:27:33.157Z,100319.16
2022-10-05T19:30:20.173Z,100320.06
2022-10-05T19:33:08.311Z,100328.91
2022-10-05T19:35:48.325Z,100328.91
2022-10-05T19:38:27.805Z,100334.22
2022-10-05T19:41:03.627Z,100343.94
2022-10-05T19:43:50.571Z,100339.53
2022-10-05T19:46:31.249Z,100328.03
2022-10-05T19:49:00.173Z,100320.09
2022-10-05T19:51:31.330Z,100343.94
2022-10-05T19:54:03.639Z,100329.81
2022-10-05T19:56:34.773Z,100328.91
2022-10-05T19:59:14.099Z,100328.06
2022-10-05T20:01:51.362Z,100327.19
2022-10-05T20:04:34.341Z,100338.66
2022-10-05T20:07:03.225Z,100340.44
2022-10-05T20:09:51.422Z,100331.56
2022-10-05T20:12:22.572Z,100335.13
2022-10-05T20:15:24.776Z,100332.47
2022-10-05T20:18:10.447Z,100344.81
2022-10-05T20:20:44.481Z,100343.94
2022-10-05T20:23:23.235Z,100351.91
2022-10-05T20:26:10.905Z,100345.72
2022-10-05T20:28:39.612Z,100355.44
2022-10-05T20:31:08.606Z,100344.84
2022-10-05T20:33:36.942Z,100350.13
2022-10-05T20:36:05.576Z,100363.38
2022-10-05T20:38:40.042Z,100370.44
2022-10-05T20:41:10.741Z,100377.53
2022-10-05T20:43:39.381Z,100389.91
2022-10-05T20:46:08.535Z,100386.34
2022-10-05T20:48:37.087Z,100397.84
2022-10-05T20:51:05.626Z,100394.31
2022-10-05T20:53:33.927Z,100395.19
2022-10-05T20:56:04.399Z,100398.72
2022-10-05T20:58:34.155Z,100393.41
2022-10-05T21:01:18.327Z,100387.25
2022-10-05T21:03:47.474Z,100403.16
2022-10-05T21:06:15.953Z,100398.72
2022-10-05T21:08:46.651Z,100410.19
2022-10-05T21:11:15.198Z,100410.22
2022-10-05T21:13:45.742Z,100413.75
2022-10-05T21:16:15.485Z,100422.59
2022-10-05T21:18:46.799Z,100419.06
2022-10-05T21:21:15.561Z,100427.00
2022-10-05T21:23:44.757Z,100426.13
2022-10-05T21:26:13.758Z,100436.72
2022-10-05T21:28:43.946Z,100447.31
2022-10-05T21:31:12.313Z,100437.63
2022-10-05T21:33:40.652Z,100427.00
2022-10-05T21:36:09.058Z,100434.94
2022-10-05T21:38:37.700Z,100445.53
2022-10-05T21:41:06.261Z,100430.53
2022-10-05T21:43:34.681Z,100442.03
2022-10-05T21:46:04.582Z,100443.78
2022-10-05T21:48:34.720Z,100431.44
2022-10-05T21:51:04.234Z,100454.38
2022-10-05T21:53:36.749Z,100442.91
2022-10-05T21:56:10.031Z,100461.44
2022-10-05T21:58:38.723Z,100485.28
2022-10-05T22:01:08.914Z,100507.38
2022-10-05T22:03:37.300Z,100539.13
2022-10-05T22:06:06.744Z,100542.59
2022-10-05T22:08:35.652Z,100527.47
2022-10-05T22:11:10.597Z,100536.16
2022-10-05T22:13:44.526Z,100538.72
2022-10-05T22:16:15.677Z,100543.00
2022-10-05T22:18:44.421Z,100549.06
2022-10-05T22:21:14.384Z,100550.72
2022-10-05T22:23:44.531Z,100559.41
2022-10-05T22:26:17.477Z,100579.56
2022-10-05T22:28:46.823Z,100572.41
2022-10-05T22:31:16.979Z,100583.78
2022-10-05T22:33:45.458Z,100597.84
2022-10-05T22:36:13.818Z,100590.72
2022-10-05T22:38:42.117Z,100595.06
2022-10-05T22:41:11.730Z,100602.94
2022-10-05T22:43:40.179Z,100609.03
2022-10-05T22:46:10.144Z,100614.28
2022-10-05T22:48:40.119Z,100616.84
2022-10-05T22:51:09.151Z,100614.19
2022-10-05T22:53:37.477Z,100624.72
2022-10-05T22:56:07.271Z,100625.56
2022-10-05T22:58:36.337Z,100637.84
2022-10-05T23:01:06.194Z,100631.69
2022-10-05T23:03:35.156Z,100637.81
2022-10-05T23:06:07.544Z,100638.66
2022-10-05T23:08:37.540Z,100644.78
2022-10-05T23:11:06.906Z,100651.81
2022-10-05T23:13:35.728Z,100694.94
2022-10-05T23:16:08.992Z,100721.28
2022-10-05T23:18:38.111Z,100741.34
2022-10-05T23:21:09.221Z,100760.31
2022-10-05T23:23:38.181Z,100749.47
2022-10-05T23:26:08.204Z,100764.13
2022-10-05T23:28:36.602Z,100763.84
2022-10-05T23:31:07.316Z,100772.44
2022-10-05T23:33:36.386Z,100781.88
2022-10-05T23:36:08.287Z,100777.28
2022-10-05T23:38:37.520Z,100790.19
2022-10-05T23:41:07.467Z,100781.19
2022-10-05T23:43:36.765Z,100774.69
2022-10-05T23:46:07.282Z,100777.09
2022-10-05T23:48:38.219Z,100786.56
2022-10-05T23:51:10.606Z,100786.34
2022-10-05T23:53:39.414Z,100774.75
2022-10-05T23:56:08.127Z,100787.81
2022-10-05T23:58:36.434Z,100784.19
